Time;durP1;ratioP1;P1;durP2;ratioP2;P2;SDS_P1;SDS_P2;PMS_P1;PMS_P2;Temp;Humidity;BMP_temperature;BMP_pressure;BME280_temperature;BME280_humidity;BME280_pressure;Samples;Min_cycle;Max_cycle;Signal;HPM_P1;HPM_P2
2022/02/15 00:01:51;;;;;;;0.00;0.00;;;7.70;99.90;;;;;;5032847;28;20480;-71
2022/02/15 00:04:17;;;;;;;0.25;0.25;;;7.70;99.90;;;;;;5033077;28;20033;-71
2022/02/15 00:06:43;;;;;;;0.15;0.15;;;7.60;99.90;;;;;;5032729;28;20025;-77
2022/02/15 00:09:09;;;;;;;0.00;0.00;;;7.60;99.90;;;;;;5032509;28;20052;-71
2022/02/15 00:11:35;;;;;;;0.00;0.00;;;7.60;99.90;;;;;;5032839;28;20053;-71
2022/02/15 00:14:00;;;;;;;0.00;0.00;;;7.60;99.90;;;;;;5032353;28;20052;-71
2022/02/15 00:16:27;;;;;;;0.20;0.20;;;7.50;99.90;;;;;;5031604;28;20033;-78
2022/02/15 00:18:53;;;;;;;0.10;0.10;;;7.50;99.90;;;;;;5032825;28;20485;-77
2022/02/15 00:21:19;;;;;;;1.25;0.93;;;7.50;99.90;;;;;;5027192;28;20025;-78
2022/02/15 00:23:44;;;;;;;1.75;0.65;;;7.50;99.90;;;;;;5012582;28;20036;-71
2022/02/15 00:26:10;;;;;;;0.00;0.00;;;7.40;99.90;;;;;;5027839;28;20042;-71
2022/02/15 00:28:36;;;;;;;3.28;0.88;;;7.30;99.90;;;;;;5013029;28;20026;-78
2022/02/15 00:31:02;;;;;;;0.00;0.00;;;7.30;99.90;;;;;;5012882;28;20507;-77
2022/02/15 00:33:28;;;;;;;3.60;1.70;;;7.30;99.90;;;;;;5012709;28;20100;-77
2022/02/15 00:35:55;;;;;;;0.20;0.20;;;7.30;99.90;;;;;;5014168;28;20113;-71
2022/02/15 00:38:21;;;;;;;0.38;0.38;;;7.20;99.90;;;;;;5063781;28;20480;-72
2022/02/15 00:40:49;;;;;;;0.40;0.30;;;7.20;99.90;;;;;;5032947;28;20050;-71
2022/02/15 00:43:15;;;;;;;1.00;1.00;;;7.20;99.90;;;;;;5032673;28;20445;-77
2022/02/15 00:45:41;;;;;;;0.13;0.13;;;7.20;99.90;;;;;;5031016;28;20120;-78
2022/02/15 00:48:06;;;;;;;0.00;0.00;;;7.20;99.90;;;;;;5032203;28;20092;-77
2022/02/15 00:50:32;;;;;;;0.30;0.30;;;7.30;99.90;;;;;;5032140;28;20461;-71
2022/02/15 00:52:58;;;;;;;1.55;1.20;;;7.30;99.90;;;;;;5032078;28;20025;-78
2022/02/15 00:55:23;;;;;;;0.00;0.00;;;7.30;99.90;;;;;;5032281;28;20021;-71
2022/02/15 00:57:49;;;;;;;0.00;0.00;;;7.30;99.90;;;;;;5032388;28;20065;-78
2022/02/15 01:00:15;;;;;;;0.00;0.00;;;7.20;99.90;;;;;;5032646;28;20029;-71
2022/02/15 01:02:43;;;;;;;0.00;0.00;;;7.20;99.90;;;;;;5032468;28;20033;-72
2022/02/15 01:05:09;;;;;;;1.17;1.08;;;7.20;99.90;;;;;;5032389;28;20024;-72
2022/02/15 01:07:35;;;;;;;0.45;0.45;;;7.20;99.90;;;;;;5030344;28;20029;-78
2022/02/15 01:10:01;;;;;;;0.28;0.28;;;7.20;99.90;;;;;;5031683;28;20056;-71
2022/02/15 01:12:26;;;;;;;0.00;0.00;;;7.20;99.90;;;;;;5031448;28;20053;-78
2022/02/15 01:14:52;;;;;;;0.00;0.00;;;7.20;99.90;;;;;;5032981;28;20061;-71
2022/02/15 01:17:18;;;;;;;0.00;0.00;;;7.20;99.90;;;;;;5031371;28;20021;-71
2022/02/15 01:19:44;;;;;;;0.20;0.20;;;7.20;99.90;;;;;;5032076;28;20465;-71
2022/02/15 01:22:09;;;;;;;0.10;0.10;;;7.20;99.90;;;;;;5019996;28;20490;-71
2022/02/15 01:24:35;;;;;;;0.85;0.85;;;7.20;99.90;;;;;;5011971;28;20052;-72
2022/02/15 01:27:01;;;;;;;0.20;0.20;;;7.30;99.90;;;;;;5014789;28;20097;-78
2022/02/15 01:29:27;;;;;;;0.40;0.40;;;7.30;99.90;;;;;;5016188;28;20642;-76
2022/02/15 01:31:53;;;;;;;0.52;0.47;;;7.30;99.90;;;;;;5016141;28;20081;-71
2022/02/15 01:34:19;;;;;;;0.15;0.15;;;7.30;99.90;;;;;;5047842;28;20034;-78
2022/02/15 01:36:44;;;;;;;1.73;0.88;;;7.30;99.90;;;;;;5053980;28;20136;-78
2022/02/15 01:39:10;;;;;;;0.52;0.52;;;7.40;99.90;;;;;;5040677;28;20050;-77
2022/02/15 01:41:36;;;;;;;8.20;1.65;;;7.40;99.90;;;;;;5035285;28;20393;-78
2022/02/15 01:44:02;;;;;;;2.58;1.80;;;7.30;99.90;;;;;;5035597;28;20097;-71
2022/02/15 01:46:28;;;;;;;0.70;0.40;;;7.30;99.90;;;;;;5035046;28;20036;-72
2022/02/15 01:48:54;;;;;;;0.00;0.00;;;7.30;99.90;;;;;;5035292;28;20068;-71
2022/02/15 01:51:19;;;;;;;0.00;0.00;;;7.30;99.90;;;;;;5035044;28;20076;-70
2022/02/15 01:53:45;;;;;;;4.60;0.88;;;7.30;99.90;;;;;;5035081;28;20025;-71
2022/02/15 01:56:13;;;;;;;0.00;0.00;;;7.30;99.90;;;;;;5035509;28;20386;-78
2022/02/15 01:58:39;;;;;;;10.20;1.35;;;7.40;99.90;;;;;;5035560;28;20060;-77
2022/02/15 02:01:04;;;;;;;7.97;1.98;;;7.40;99.90;;;;;;5035271;28;20034;-71
2022/02/15 02:03:30;;;;;;;0.10;0.10;;;7.40;99.90;;;;;;5035030;28;20091;-71
2022/02/15 02:05:56;;;;;;;0.10;0.10;;;7.40;99.90;;;;;;5035163;28;20080;-78
2022/02/15 02:08:24;;;;;;;3.30;1.20;;;7.50;99.90;;;;;;5034623;28;20051;-71
2022/02/15 02:10:50;;;;;;;0.00;0.00;;;7.40;99.90;;;;;;5034970;28;20022;-78
2022/02/15 02:13:16;;;;;;;0.00;0.00;;;7.40;99.90;;;;;;5035000;28;20100;-78
2022/02/15 02:15:46;;;;;;;0.50;0.50;;;7.40;99.90;;;;;;5034421;28;20493;-71
2022/02/15 02:18:12;;;;;;;0.20;0.17;;;7.40;99.90;;;;;;5034016;28;20401;-71
2022/02/15 02:20:39;;;;;;;1.10;1.02;;;7.40;99.90;;;;;;5036355;28;20156;-72
2022/02/15 02:23:08;;;;;;;0.00;0.00;;;7.50;99.90;;;;;;5029711;28;20030;-71
2022/02/15 02:25:34;;;;;;;1.75;0.80;;;7.50;99.90;;;;;;5015063;28;20112;-71
2022/02/15 02:28:01;;;;;;;1.77;1.65;;;7.50;99.90;;;;;;5014891;28;20505;-78
2022/02/15 02:30:27;;;;;;;0.30;0.30;;;7.40;99.90;;;;;;5014718;28;20124;-71
2022/02/15 02:32:53;;;;;;;0.30;0.30;;;7.40;99.90;;;;;;5030008;28;20475;-71
2022/02/15 02:35:19;;;;;;;0.73;0.73;;;7.40;99.90;;;;;;5014918;28;20551;-78
2022/02/15 02:37:45;;;;;;;0.25;0.25;;;7.40;99.90;;;;;;5027340;28;20500;-71
2022/02/15 02:40:11;;;;;;;0.88;0.13;;;7.50;99.90;;;;;;5034399;28;20029;-71
2022/02/15 02:42:38;;;;;;;0.03;0.03;;;7.40;99.90;;;;;;5034646;28;20596;-77
2022/02/15 02:45:17;;;;;;;1.85;0.98;;;7.40;99.90;;;;;;5033241;28;20025;-71
2022/02/15 02:47:44;;;;;;;0.10;0.10;;;7.40;99.90;;;;;;5034082;28;20486;-77
2022/02/15 02:50:13;;;;;;;0.20;0.20;;;7.40;99.90;;;;;;5034338;28;20427;-71
2022/02/15 02:52:39;;;;;;;0.10;0.10;;;7.40;99.90;;;;;;5032891;28;20404;-71
2022/02/15 02:55:05;;;;;;;0.00;0.00;;;7.40;99.90;;;;;;5032307;28;20029;-78
2022/02/15 02:57:33;;;;;;;0.90;0.45;;;7.50;99.90;;;;;;5034210;28;20041;-71
2022/02/15 02:59:59;;;;;;;0.00;0.00;;;7.40;99.90;;;;;;5037841;28;20006;-78
2022/02/15 03:02:24;;;;;;;5.07;1.35;;;7.40;99.90;;;;;;5033935;28;20025;-78
2022/02/15 03:04:50;;;;;;;0.00;0.00;;;7.50;99.90;;;;;;5034069;28;20029;-78
2022/02/15 03:07:16;;;;;;;0.10;0.10;;;7.50;99.90;;;;;;5032629;28;20029;-71
2022/02/15 03:09:41;;;;;;;5.72;0.68;;;7.40;99.90;;;;;;5033685;28;20481;-71
2022/02/15 03:12:07;;;;;;;6.05;0.45;;;7.40;99.90;;;;;;5035806;28;20033;-76
2022/02/15 03:14:33;;;;;;;0.00;0.00;;;7.40;99.90;;;;;;5036021;28;20431;-71
2022/02/15 03:16:59;;;;;;;0.75;0.75;;;7.40;99.90;;;;;;5033548;28;20048;-72
2022/02/15 03:19:24;;;;;;;0.00;0.00;;;7.40;99.90;;;;;;5033014;28;20029;-78
2022/02/15 03:21:50;;;;;;;1.35;0.70;;;7.40;99.90;;;;;;5033678;28;20385;-72
2022/02/15 03:24:16;;;;;;;2.53;1.65;;;7.40;99.90;;;;;;5033522;28;20037;-78
2022/02/15 03:26:45;;;;;;;0.30;0.30;;;7.40;99.90;;;;;;5035504;28;20413;-71
2022/02/15 03:29:11;;;;;;;0.08;0.08;;;7.40;99.90;;;;;;5033165;28;20481;-78
2022/02/15 03:31:40;;;;;;;3.55;0.57;;;7.30;99.90;;;;;;5033268;28;20075;-76
2022/02/15 03:34:06;;;;;;;0.63;0.63;;;7.30;99.90;;;;;;5033597;28;20122;-78
2022/02/15 03:36:32;;;;;;;0.60;0.60;;;7.30;99.90;;;;;;5033730;28;20104;-77
2022/02/15 03:38:57;;;;;;;0.00;0.00;;;7.30;99.90;;;;;;5033632;28;20079;-78
2022/02/15 03:44:07;;;;;;;0.90;0.13;;;7.20;99.90;;;;;;5033406;28;20091;-78
2022/02/15 03:46:33;;;;;;;0.00;0.00;;;7.20;99.90;;;;;;5032910;28;20476;-78
2022/02/15 03:48:59;;;;;;;0.38;0.35;;;7.20;99.90;;;;;;5032766;28;20045;-78
2022/02/15 03:51:24;;;;;;;0.05;0.05;;;7.20;99.90;;;;;;5033211;28;20079;-71
2022/02/15 03:53:50;;;;;;;0.10;0.10;;;7.20;99.90;;;;;;5033024;28;20026;-71
2022/02/15 03:56:16;;;;;;;0.00;0.00;;;7.20;99.90;;;;;;5033490;28;20030;-71
2022/02/15 03:58:42;;;;;;;0.00;0.00;;;7.20;99.90;;;;;;5033152;28;20033;-77
2022/02/15 04:01:09;;;;;;;0.00;0.00;;;7.10;99.90;;;;;;5033053;28;20033;-71
2022/02/15 04:03:35;;;;;;;0.22;0.22;;;7.10;99.90;;;;;;5032798;28;20040;-72
2022/02/15 04:06:00;;;;;;;0.10;0.10;;;7.00;99.90;;;;;;5032690;28;20018;-71
2022/02/15 04:08:26;;;;;;;4.07;0.68;;;7.00;99.90;;;;;;5032175;28;20029;-78
2022/02/15 04:10:52;;;;;;;1.13;0.45;;;7.00;99.90;;;;;;5033035;28;20124;-71
2022/02/15 04:13:18;;;;;;;13.15;2.60;;;7.00;99.90;;;;;;5032105;28;20029;-71
2022/02/15 04:15:44;;;;;;;0.65;0.35;;;6.90;99.90;;;;;;5032634;28;20040;-77
2022/02/15 04:18:10;;;;;;;1.02;0.17;;;6.90;99.90;;;;;;5032543;28;20068;-78
2022/02/15 04:20:36;;;;;;;0.28;0.28;;;6.90;99.90;;;;;;5032484;28;20036;-71
2022/02/15 04:23:02;;;;;;;0.00;0.00;;;6.90;99.90;;;;;;5018848;28;20018;-71
2022/02/15 04:25:28;;;;;;;3.60;2.20;;;6.80;99.90;;;;;;5012966;28;20056;-71
2022/02/15 04:27:54;;;;;;;0.32;0.32;;;6.80;99.90;;;;;;5012627;28;20018;-72
2022/02/15 04:30:19;;;;;;;0.00;0.00;;;6.90;99.90;;;;;;5013218;28;20064;-71
2022/02/15 04:32:45;;;;;;;0.25;0.25;;;6.90;99.90;;;;;;5013049;28;20018;-71
2022/02/15 04:35:11;;;;;;;0.20;0.20;;;6.90;99.90;;;;;;5013336;28;20037;-71
2022/02/15 04:37:37;;;;;;;0.70;0.57;;;7.00;99.90;;;;;;5025951;28;20083;-78
2022/02/15 04:40:03;;;;;;;4.38;1.08;;;7.10;99.90;;;;;;5032613;28;20400;-72
2022/02/15 04:42:29;;;;;;;1.17;0.80;;;7.00;99.90;;;;;;5030663;28;20487;-78
2022/02/15 04:44:55;;;;;;;9.00;1.13;;;7.10;99.90;;;;;;5032638;28;20065;-71
2022/02/15 04:47:21;;;;;;;8.05;4.03;;;7.20;99.90;;;;;;5032291;28;20017;-78
2022/02/15 04:49:46;;;;;;;1.65;0.80;;;7.20;99.90;;;;;;5032539;28;20100;-78
2022/02/15 04:52:12;;;;;;;12.95;1.55;;;7.20;99.90;;;;;;5032581;28;20479;-78
2022/02/15 04:54:37;;;;;;;0.10;0.10;;;7.20;99.90;;;;;;5032239;28;20037;-71
2022/02/15 04:57:03;;;;;;;0.65;0.65;;;7.10;99.90;;;;;;5032575;28;20025;-78
2022/02/15 04:59:29;;;;;;;0.45;0.45;;;7.20;99.90;;;;;;5031097;28;20535;-71
2022/02/15 05:01:55;;;;;;;0.95;0.52;;;7.30;99.90;;;;;;5034782;28;20025;-78
2022/02/15 05:07:05;;;;;;;0.17;0.17;;;7.40;99.90;;;;;;5036239;28;20068;-71
2022/02/15 05:09:31;;;;;;;0.43;0.40;;;7.50;99.90;;;;;;5034297;28;20399;-71
2022/02/15 05:11:57;;;;;;;0.30;0.30;;;7.60;99.90;;;;;;5036006;28;20043;-71
2022/02/15 05:14:23;;;;;;;0.65;0.55;;;7.60;99.90;;;;;;5035898;28;20437;-78
2022/02/15 05:16:49;;;;;;;0.00;0.00;;;7.70;99.90;;;;;;5035431;28;20535;-71
2022/02/15 05:19:15;;;;;;;2.03;1.10;;;7.70;99.90;;;;;;5035176;28;20095;-72
2022/02/15 05:21:40;;;;;;;3.20;1.30;;;7.70;99.90;;;;;;5035753;28;20100;-78
2022/02/15 05:24:06;;;;;;;2.05;1.10;;;7.70;99.90;;;;;;5035617;28;20037;-71
2022/02/15 05:26:33;;;;;;;0.00;0.00;;;7.60;99.90;;;;;;5036086;28;20029;-71
2022/02/15 05:28:59;;;;;;;0.15;0.15;;;7.60;99.90;;;;;;5035924;28;20033;-71
2022/02/15 05:31:24;;;;;;;2.10;1.00;;;7.60;99.90;;;;;;5036458;28;20021;-78
2022/02/15 05:33:50;;;;;;;0.52;0.52;;;7.50;99.90;;;;;;5035741;28;20067;-71
2022/02/15 05:36:16;;;;;;;0.00;0.00;;;7.60;99.90;;;;;;5035766;28;20022;-78
2022/02/15 05:38:42;;;;;;;0.00;0.00;;;7.60;99.90;;;;;;5035477;28;20451;-77
2022/02/15 05:41:11;;;;;;;0.00;0.00;;;7.60;99.90;;;;;;5032297;28;20049;-71
2022/02/15 05:43:37;;;;;;;3.25;1.45;;;7.60;99.90;;;;;;5035389;28;20036;-71
2022/02/15 05:46:02;;;;;;;1.10;0.75;;;7.70;99.90;;;;;;5035355;28;20397;-71
2022/02/15 05:48:28;;;;;;;0.47;0.47;;;7.70;99.90;;;;;;5035240;28;20446;-71
2022/02/15 05:50:55;;;;;;;0.00;0.00;;;7.70;99.90;;;;;;5034964;28;20030;-71
2022/02/15 05:53:30;;;;;;;0.63;0.63;;;7.70;99.90;;;;;;5033761;28;20075;-71
2022/02/15 05:55:59;;;;;;;2.08;1.52;;;7.80;99.90;;;;;;5035262;28;20542;-71
2022/02/15 05:58:29;;;;;;;0.65;0.65;;;7.80;99.90;;;;;;5033013;28;20025;-71
2022/02/15 06:00:57;;;;;;;1.38;0.95;;;7.80;99.90;;;;;;5035008;28;20108;-78
2022/02/15 06:06:09;;;;;;;0.00;0.00;;;8.00;99.90;;;;;;5035060;28;20546;-79
2022/02/15 06:08:36;;;;;;;0.28;0.28;;;8.00;99.90;;;;;;5032478;28;20408;-78
2022/02/15 06:11:03;;;;;;;0.30;0.30;;;8.00;99.90;;;;;;5031517;28;20017;-78
2022/02/15 06:13:29;;;;;;;0.65;0.55;;;8.10;99.90;;;;;;5034614;28;20028;-71
2022/02/15 06:15:55;;;;;;;0.00;0.00;;;8.10;99.90;;;;;;5034723;28;20025;-72
2022/02/15 06:18:20;;;;;;;0.20;0.20;;;8.00;99.90;;;;;;5034313;28;20400;-78
2022/02/15 06:20:46;;;;;;;0.00;0.00;;;8.00;99.90;;;;;;5034687;28;20022;-78
2022/02/15 06:23:12;;;;;;;0.00;0.00;;;7.90;99.90;;;;;;5019292;28;20030;-73
2022/02/15 06:25:37;;;;;;;0.00;0.00;;;7.80;99.90;;;;;;5014879;28;20044;-79
2022/02/15 06:28:04;;;;;;;2.83;0.17;;;7.70;99.90;;;;;;5012856;28;20026;-78
2022/02/15 06:30:29;;;;;;;0.00;0.00;;;7.60;99.90;;;;;;5014731;28;20028;-72
2022/02/15 06:32:55;;;;;;;0.00;0.00;;;7.60;99.90;;;;;;5014679;28;20030;-78
2022/02/15 06:35:21;;;;;;;1.45;0.63;;;7.60;99.90;;;;;;5016526;28;20362;-72
2022/02/15 06:37:50;;;;;;;0.82;0.22;;;7.50;99.90;;;;;;5031096;28;20452;-73
2022/02/15 06:40:17;;;;;;;0.00;0.00;;;7.50;99.90;;;;;;5033693;28;20021;-71
2022/02/15 06:42:44;;;;;;;0.95;0.95;;;7.50;99.90;;;;;;5034299;28;20025;-71
2022/02/15 06:45:10;;;;;;;0.00;0.00;;;7.60;99.90;;;;;;5034135;28;20034;-78
2022/02/15 06:47:36;;;;;;;0.00;0.00;;;7.50;99.90;;;;;;5033469;28;20393;-79
2022/02/15 06:50:04;;;;;;;0.00;0.00;;;7.60;99.90;;;;;;5032740;28;20030;-71
2022/02/15 06:52:30;;;;;;;0.10;0.10;;;7.60;99.90;;;;;;5033906;28;20037;-71
2022/02/15 06:54:55;;;;;;;0.00;0.00;;;7.60;99.90;;;;;;5033262;28;20037;-71
2022/02/15 06:57:21;;;;;;;0.00;0.00;;;7.60;99.90;;;;;;5033699;28;20025;-71
2022/02/15 06:59:47;;;;;;;0.00;0.00;;;7.60;99.90;;;;;;5034501;28;20052;-70
2022/02/15 07:02:13;;;;;;;0.00;0.00;;;7.60;99.90;;;;;;5031189;28;20033;-71
2022/02/15 07:04:38;;;;;;;0.00;0.00;;;7.60;99.90;;;;;;5032052;28;20033;-71
2022/02/15 07:07:04;;;;;;;0.00;0.00;;;7.70;99.90;;;;;;5031701;28;20053;-78
2022/02/15 07:09:31;;;;;;;0.00;0.00;;;7.70;99.90;;;;;;5028829;28;20546;-71
2022/02/15 07:11:57;;;;;;;0.00;0.00;;;7.70;99.90;;;;;;5029137;28;20022;-78
2022/02/15 07:14:22;;;;;;;0.95;0.88;;;7.70;99.90;;;;;;5024410;28;20029;-79
2022/02/15 07:16:48;;;;;;;0.00;0.00;;;7.80;99.90;;;;;;5031786;28;20033;-79
2022/02/15 07:19:14;;;;;;;0.47;0.35;;;7.70;99.90;;;;;;5031254;28;20044;-72
2022/02/15 07:21:42;;;;;;;1.55;0.68;;;7.80;99.90;;;;;;5028464;28;20483;-72
2022/02/15 07:24:07;;;;;;;0.00;0.00;;;7.80;99.90;;;;;;5029888;28;20017;-79
2022/02/15 07:26:33;;;;;;;0.00;0.00;;;7.80;99.90;;;;;;5032134;28;20036;-79
2022/02/15 07:28:59;;;;;;;0.70;0.70;;;7.90;99.90;;;;;;5032288;28;20032;-78
2022/02/15 07:31:25;;;;;;;0.00;0.00;;;7.90;99.90;;;;;;5031407;28;20036;-72
2022/02/15 07:33:50;;;;;;;0.00;0.00;;;7.90;99.90;;;;;;5031738;28;20017;-71
2022/02/15 07:36:17;;;;;;;0.00;0.00;;;8.00;99.90;;;;;;5031437;28;20040;-71
2022/02/15 07:38:42;;;;;;;0.00;0.00;;;7.90;99.90;;;;;;5029726;28;20029;-76
2022/02/15 07:41:08;;;;;;;0.00;0.00;;;7.90;99.90;;;;;;5030074;28;20424;-72
2022/02/15 07:43:34;;;;;;;0.28;0.28;;;7.90;99.90;;;;;;5031470;28;20033;-71
2022/02/15 07:46:00;;;;;;;0.00;0.00;;;8.00;99.90;;;;;;5031458;28;20032;-71
2022/02/15 07:48:26;;;;;;;0.00;0.00;;;8.00;99.90;;;;;;5031066;28;20079;-72
2022/02/15 07:50:51;;;;;;;0.00;0.00;;;8.00;99.90;;;;;;5031121;28;20018;-79
2022/02/15 07:53:17;;;;;;;0.20;0.15;;;8.00;99.90;;;;;;5030905;28;20033;-78
2022/02/15 07:55:42;;;;;;;0.00;0.00;;;8.00;99.90;;;;;;5031375;28;20507;-78
2022/02/15 07:58:08;;;;;;;0.00;0.00;;;8.00;99.90;;;;;;5030657;28;20040;-78
2022/02/15 08:00:34;;;;;;;0.38;0.38;;;8.00;99.90;;;;;;5028242;28;20030;-71
2022/02/15 08:03:00;;;;;;;0.10;0.10;;;8.00;99.90;;;;;;5026818;28;20075;-78
2022/02/15 08:05:26;;;;;;;3.53;1.85;;;8.10;99.90;;;;;;5033285;28;20033;-78
2022/02/15 08:07:56;;;;;;;0.00;0.00;;;8.10;99.90;;;;;;5026294;28;20488;-78
2022/02/15 08:10:23;;;;;;;0.00;0.00;;;8.10;99.90;;;;;;5026679;28;20025;-71
2022/02/15 08:12:55;;;;;;;0.00;0.00;;;8.10;99.90;;;;;;5027124;28;20108;-71
2022/02/15 08:15:23;;;;;;;0.00;0.00;;;8.10;99.90;;;;;;5028954;28;20017;-77
2022/02/15 08:17:51;;;;;;;0.00;0.00;;;8.10;99.90;;;;;;5029000;28;20488;-78
2022/02/15 08:20:17;;;;;;;0.00;0.00;;;8.30;99.90;;;;;;5029104;28;20029;-77
2022/02/15 08:22:42;;;;;;;0.00;0.00;;;8.50;99.90;;;;;;5027278;28;20099;-77
2022/02/15 08:25:08;;;;;;;0.00;0.00;;;9.10;99.90;;;;;;5029527;28;20431;-77
2022/02/15 08:27:34;;;;;;;3.63;1.00;;;9.20;99.90;;;;;;5031862;28;20053;-71
2022/02/15 08:30:00;;;;;;;0.00;0.00;;;9.30;99.90;;;;;;5035063;28;20029;-78
2022/02/15 08:32:25;;;;;;;0.00;0.00;;;10.00;99.90;;;;;;5045204;28;20029;-77
2022/02/15 08:34:51;;;;;;;0.00;0.00;;;10.00;99.90;;;;;;5048812;28;20037;-71
2022/02/15 08:37:17;;;;;;;0.00;0.00;;;9.70;99.90;;;;;;5038602;28;20037;-78
2022/02/15 08:39:43;;;;;;;0.00;0.00;;;9.20;99.90;;;;;;5037129;28;20057;-77
2022/02/15 08:42:09;;;;;;;0.00;0.00;;;9.10;99.90;;;;;;5035975;28;20088;-71
2022/02/15 08:44:35;;;;;;;0.00;0.00;;;9.30;99.90;;;;;;5047619;28;20496;-77
2022/02/15 08:47:02;;;;;;;0.00;0.00;;;9.40;99.90;;;;;;5051130;28;20056;-72
2022/02/15 08:49:28;;;;;;;0.85;0.85;;;9.50;99.90;;;;;;5047712;28;20052;-71
2022/02/15 08:51:54;;;;;;;0.00;0.00;;;9.50;99.90;;;;;;5037211;28;20135;-76
2022/02/15 08:54:20;;;;;;;0.00;0.00;;;9.50;99.90;;;;;;5052583;28;20369;-76
2022/02/15 08:56:45;;;;;;;0.10;0.10;;;9.50;99.90;;;;;;5038855;28;20025;-76
2022/02/15 08:59:11;;;;;;;0.00;0.00;;;9.40;99.90;;;;;;5042246;28;20033;-73
2022/02/15 09:01:37;;;;;;;0.10;0.10;;;9.40;99.90;;;;;;5044927;28;20021;-71
2022/02/15 09:04:03;;;;;;;0.00;0.00;;;9.60;99.90;;;;;;5038572;28;20095;-71
2022/02/15 09:06:28;;;;;;;0.03;0.03;;;9.70;99.90;;;;;;5034903;28;20033;-72
2022/02/15 09:08:54;;;;;;;0.05;0.05;;;9.80;99.90;;;;;;5035873;28;20043;-76
2022/02/15 09:11:20;;;;;;;2.63;0.85;;;9.90;99.90;;;;;;5032844;28;20034;-76
2022/02/15 09:13:45;;;;;;;0.15;0.15;;;10.00;99.90;;;;;;5025620;28;20023;-77
2022/02/15 09:16:11;;;;;;;0.00;0.00;;;10.00;99.90;;;;;;5016122;28;20443;-78
2022/02/15 09:18:37;;;;;;;0.00;0.00;;;10.00;99.90;;;;;;5027963;28;20076;-73
2022/02/15 09:21:03;;;;;;;0.00;0.00;;;10.00;99.90;;;;;;5026421;28;20041;-76
2022/02/15 09:23:31;;;;;;;0.35;0.35;;;9.90;99.90;;;;;;5030560;28;20030;-77
2022/02/15 09:25:59;;;;;;;0.00;0.00;;;9.90;99.90;;;;;;5031884;28;20045;-76
2022/02/15 09:28:25;;;;;;;16.33;0.43;;;10.00;99.90;;;;;;5029404;28;20029;-71
2022/02/15 09:30:54;;;;;;;0.00;0.00;;;10.00;99.90;;;;;;5029339;28;20034;-77
2022/02/15 09:33:24;;;;;;;0.60;0.60;;;10.10;99.90;;;;;;5018717;28;20128;-77
2022/02/15 09:35:50;;;;;;;0.00;0.00;;;10.10;99.90;;;;;;5030071;28;20120;-76
2022/02/15 09:38:17;;;;;;;0.00;0.00;;;10.10;99.90;;;;;;5061666;28;20159;-76
2022/02/15 09:40:44;;;;;;;1.60;0.68;;;10.20;99.90;;;;;;5029018;28;20033;-76
2022/02/15 09:43:13;;;;;;;6.10;1.70;;;10.20;99.90;;;;;;5030503;28;20025;-72
2022/02/15 09:45:39;;;;;;;0.00;0.00;;;10.30;99.90;;;;;;5013357;28;20104;-71
2022/02/15 09:48:08;;;;;;;0.55;0.55;;;10.30;99.90;;;;;;5024090;28;20025;-77
2022/02/15 09:50:34;;;;;;;0.38;0.28;;;10.40;99.90;;;;;;5035093;28;20395;-77
2022/02/15 09:53:01;;;;;;;0.63;0.35;;;10.40;99.90;;;;;;5031953;28;20028;-75
2022/02/15 09:55:27;;;;;;;0.00;0.00;;;10.50;99.90;;;;;;5029948;28;20022;-77
2022/02/15 09:57:53;;;;;;;0.00;0.00;;;10.60;99.90;;;;;;5029635;28;20511;-76
2022/02/15 10:00:21;;;;;;;0.00;0.00;;;10.70;99.90;;;;;;5030535;28;20037;-76
2022/02/15 10:02:48;;;;;;;0.00;0.00;;;10.90;99.90;;;;;;5033238;28;20065;-75
2022/02/15 10:05:19;;;;;;;0.00;0.00;;;10.90;99.90;;;;;;5030223;28;20044;-76
2022/02/15 10:07:54;;;;;;;0.98;0.75;;;11.00;99.90;;;;;;5033438;28;20492;-77
2022/02/15 10:10:31;;;;;;;0.00;0.00;;;11.00;99.90;;;;;;5030114;28;20482;-72
2022/02/15 10:13:05;;;;;;;0.20;0.20;;;11.00;99.90;;;;;;5032166;28;20032;-76
2022/02/15 10:15:34;;;;;;;0.75;0.75;;;11.20;99.90;;;;;;5037083;28;20319;-75
2022/02/15 10:18:04;;;;;;;0.25;0.10;;;11.30;99.90;;;;;;5029366;28;20031;-76
2022/02/15 10:20:30;;;;;;;0.00;0.00;;;11.30;99.90;;;;;;5032839;28;20036;-72
2022/02/15 10:23:22;;;;;;;0.22;0.22;;;11.30;99.90;;;;;;5032277;28;20037;-71
2022/02/15 10:25:50;;;;;;;0.22;0.22;;;11.40;99.90;;;;;;5034241;28;20144;-76
2022/02/15 10:28:24;;;;;;;0.68;0.65;;;11.30;99.90;;;;;;5028404;28;20049;-71
2022/02/15 10:30:49;;;;;;;1.58;1.48;;;11.20;99.90;;;;;;5040054;28;20488;-75
2022/02/15 10:33:16;;;;;;;1.65;1.02;;;11.20;99.90;;;;;;5031814;28;20128;-71
2022/02/15 10:35:58;;;;;;;0.00;0.00;;;11.30;99.90;;;;;;5055145;28;20022;-74
2022/02/15 10:38:29;;;;;;;0.00;0.00;;;11.20;99.90;;;;;;5032236;28;20032;-76
2022/02/15 10:40:57;;;;;;;0.20;0.20;;;11.20;99.90;;;;;;5030687;28;20045;-77
2022/02/15 10:43:23;;;;;;;5.22;1.55;;;11.20;99.90;;;;;;5032012;28;20044;-76
2022/02/15 10:45:48;;;;;;;0.57;0.57;;;11.30;99.90;;;;;;5031543;28;20029;-76
2022/02/15 10:48:14;;;;;;;0.22;0.22;;;11.40;99.90;;;;;;5027554;28;20030;-71
2022/02/15 10:50:40;;;;;;;0.00;0.00;;;11.50;99.90;;;;;;5018366;28;20029;-72
2022/02/15 10:53:07;;;;;;;0.00;0.00;;;11.60;99.90;;;;;;5028370;28;20477;-76
2022/02/15 10:55:33;;;;;;;0.00;0.00;;;11.90;99.90;;;;;;5028672;28;20032;-77
2022/02/15 10:58:01;;;;;;;0.98;0.90;;;12.00;99.90;;;;;;5033505;28;20052;-71
2022/02/15 11:00:27;;;;;;;1.13;0.85;;;11.90;99.90;;;;;;5018562;28;20033;-76
2022/02/15 11:02:53;;;;;;;0.25;0.25;;;11.80;99.90;;;;;;5015141;28;20493;-73
2022/02/15 11:05:20;;;;;;;0.00;0.00;;;11.60;99.90;;;;;;5021671;28;20036;-76
2022/02/15 11:07:46;;;;;;;0.60;0.55;;;11.70;99.90;;;;;;5019858;28;20033;-77
2022/02/15 11:10:14;;;;;;;0.00;0.00;;;11.80;99.90;;;;;;5028277;28;20029;-76
2022/02/15 11:12:47;;;;;;;0.82;0.47;;;11.70;99.90;;;;;;5035545;28;20043;-70
2022/02/15 11:15:29;;;;;;;0.73;0.73;;;11.80;99.90;;;;;;5032185;28;20029;-72
2022/02/15 11:18:00;;;;;;;0.00;0.00;;;11.80;99.90;;;;;;5023094;28;20051;-75
2022/02/15 11:20:50;;;;;;;3.00;1.05;;;11.70;99.90;;;;;;5049417;28;20090;-71
2022/02/15 11:23:17;;;;;;;0.00;0.00;;;11.70;99.90;;;;;;5050012;28;20120;-76
2022/02/15 11:25:44;;;;;;;0.22;0.22;;;11.70;99.90;;;;;;5045415;28;20044;-70
2022/02/15 11:28:14;;;;;;;8.60;2.35;;;11.70;99.90;;;;;;5033924;28;20031;-75
2022/02/15 11:30:53;;;;;;;0.20;0.20;;;11.60;99.90;;;;;;5047533;28;20029;-75
2022/02/15 11:33:24;;;;;;;0.00;0.00;;;11.60;99.90;;;;;;5045842;28;20028;-75
2022/02/15 11:35:55;;;;;;;0.45;0.45;;;11.60;99.90;;;;;;5036347;28;20504;-72
2022/02/15 11:38:22;;;;;;;1.08;0.88;;;11.60;99.90;;;;;;5030255;28;20075;-77
2022/02/15 11:41:00;;;;;;;4.28;0.85;;;11.70;99.90;;;;;;5042818;28;20569;-73
2022/02/15 11:43:26;;;;;;;0.38;0.38;;;11.70;99.90;;;;;;5045811;28;20029;-75
2022/02/15 11:45:52;;;;;;;0.13;0.13;;;11.80;99.90;;;;;;5042250;28;20389;-77
2022/02/15 11:48:18;;;;;;;0.10;0.10;;;11.90;99.90;;;;;;5044620;28;20052;-75
2022/02/15 11:50:47;;;;;;;0.00;0.00;;;12.00;99.90;;;;;;5036394;28;20021;-72
2022/02/15 11:53:16;;;;;;;1.60;0.85;;;12.00;99.90;;;;;;5027823;28;20432;-73
2022/02/15 11:55:42;;;;;;;1.08;0.43;;;12.00;99.90;;;;;;5030196;28;20021;-72
2022/02/15 11:58:08;;;;;;;2.80;0.70;;;12.20;99.90;;;;;;5028138;28;20107;-76
2022/02/15 12:00:36;;;;;;;3.08;1.65;;;12.30;99.90;;;;;;5029537;28;20037;-73
2022/02/15 12:03:03;;;;;;;1.55;0.70;;;12.40;99.90;;;;;;5029553;28;20079;-75
2022/02/15 12:05:33;;;;;;;0.00;0.00;;;12.50;99.90;;;;;;5028258;28;20022;-72
2022/02/15 12:08:00;;;;;;;0.00;0.00;;;12.50;99.90;;;;;;5027763;28;20092;-72
2022/02/15 12:10:37;;;;;;;0.55;0.35;;;12.70;99.90;;;;;;5032488;28;20030;-76
2022/02/15 12:13:04;;;;;;;0.00;0.00;;;12.80;99.90;;;;;;5029790;28;20476;-77
2022/02/15 12:15:36;;;;;;;5.55;1.60;;;12.60;99.90;;;;;;5018356;28;20490;-72
2022/02/15 12:18:03;;;;;;;9.75;2.00;;;12.60;99.90;;;;;;5024803;28;20037;-74
2022/02/15 12:20:28;;;;;;;0.00;0.00;;;12.70;99.90;;;;;;5022626;28;20118;-73
2022/02/15 12:22:55;;;;;;;0.38;0.38;;;12.80;99.90;;;;;;5046105;28;20124;-76
2022/02/15 12:25:22;;;;;;;0.20;0.20;;;12.60;99.90;;;;;;5019044;28;20033;-75
2022/02/15 12:27:48;;;;;;;0.00;0.00;;;12.60;99.90;;;;;;5022321;28;20125;-71
2022/02/15 12:30:16;;;;;;;8.98;1.35;;;12.50;99.90;;;;;;5025108;28;20017;-76
2022/02/15 12:32:45;;;;;;;0.00;0.00;;;12.50;99.90;;;;;;5022111;28;20099;-76
2022/02/15 12:35:11;;;;;;;0.00;0.00;;;12.70;99.90;;;;;;5022723;28;20084;-77
2022/02/15 12:37:37;;;;;;;0.93;0.90;;;12.70;99.90;;;;;;5023808;28;20064;-76
2022/02/15 12:40:06;;;;;;;0.20;0.20;;;12.70;99.90;;;;;;5023207;28;20030;-77
2022/02/15 12:42:34;;;;;;;1.35;1.27;;;12.60;99.90;;;;;;5024922;28;20092;-72
2022/02/15 12:45:02;;;;;;;0.10;0.10;;;12.50;99.90;;;;;;5027728;28;20052;-73
2022/02/15 12:47:30;;;;;;;0.60;0.60;;;12.30;99.90;;;;;;5024281;28;20034;-77
2022/02/15 12:49:57;;;;;;;0.10;0.10;;;12.30;99.90;;;;;;5016477;28;20118;-77
2022/02/15 12:52:26;;;;;;;0.00;0.00;;;12.20;99.90;;;;;;5018123;28;20037;-77
2022/02/15 12:54:57;;;;;;;1.23;1.08;;;12.20;99.90;;;;;;5013115;28;20127;-76
2022/02/15 12:57:25;;;;;;;1.10;0.55;;;12.30;99.90;;;;;;5021113;28;20485;-73
2022/02/15 12:59:57;;;;;;;0.20;0.10;;;12.50;99.90;;;;;;5023133;28;20034;-73